createdAt,value
2018-06-21T00:00:40.716Z,6.05
2018-06-21T00:03:09.871Z,6.33
2018-06-21T00:05:38.982Z,7.42
2018-06-21T00:08:08.103Z,7.72
2018-06-21T00:10:37.216Z,6.80
2018-06-21T00:13:06.311Z,6.30
2018-06-21T00:15:35.386Z,6.67
2018-06-21T00:18:04.791Z,6.50
2018-06-21T00:20:33.912Z,6.37
2018-06-21T00:23:03.018Z,6.40
2018-06-21T00:25:32.119Z,6.70
2018-06-21T00:28:01.207Z,6.10
2018-06-21T00:30:30.311Z,6.67
2018-06-21T00:32:59.399Z,6.55
2018-06-21T00:35:28.664Z,6.42
2018-06-21T00:37:57.829Z,5.95
2018-06-21T00:40:26.898Z,6.62
2018-06-21T00:42:55.994Z,6.85
2018-06-21T00:45:25.081Z,6.75
2018-06-21T00:47:54.183Z,6.03
2018-06-21T00:50:23.324Z,6.50
2018-06-21T00:52:52.417Z,7.55
2018-06-21T00:55:32.541Z,7.00
2018-06-21T00:58:01.450Z,6.05
2018-06-21T01:00:30.340Z,6.30
2018-06-21T01:02:59.241Z,6.90
2018-06-21T01:05:28.126Z,7.42
2018-06-21T01:07:57.022Z,6.45
2018-06-21T01:10:25.897Z,6.60
2018-06-21T01:13:01.355Z,7.30
2018-06-21T01:15:30.446Z,7.03
2018-06-21T01:17:59.184Z,6.85
2018-06-21T01:20:28.209Z,6.90
2018-06-21T01:22:57.351Z,6.62
2018-06-21T01:25:26.762Z,7.70
2018-06-21T01:27:55.840Z,7.40
2018-06-21T01:30:24.974Z,6.58
2018-06-21T01:32:54.067Z,6.70
2018-06-21T01:35:23.146Z,6.00
2018-06-21T01:37:52.245Z,7.10
2018-06-21T01:40:21.362Z,7.20
2018-06-21T01:42:50.487Z,7.50
2018-06-21T01:45:19.646Z,7.12
2018-06-21T01:47:48.555Z,7.30
2018-06-21T01:50:17.458Z,6.83
2018-06-21T01:52:46.364Z,7.12
2018-06-21T01:55:15.262Z,7.25
2018-06-21T01:57:43.858Z,7.33
2018-06-21T02:00:12.686Z,7.28
2018-06-21T02:02:41.577Z,7.40
2018-06-21T02:05:10.534Z,7.47
2018-06-21T02:07:39.590Z,6.92
2018-06-21T02:10:08.758Z,8.08
2018-06-21T02:12:37.833Z,6.75
2018-06-21T02:15:06.910Z,7.25
2018-06-21T02:17:35.796Z,7.60
2018-06-21T02:20:04.747Z,7.45
2018-06-21T02:22:33.715Z,7.87
2018-06-21T02:25:02.606Z,7.00
2018-06-21T02:27:31.478Z,7.05
2018-06-21T02:30:00.362Z,6.70
2018-06-21T02:32:29.246Z,7.35
2018-06-21T02:34:58.150Z,7.60
2018-06-21T02:37:27.042Z,7.55
2018-06-21T02:39:55.934Z,7.12
2018-06-21T02:42:24.815Z,6.92
2018-06-21T02:44:53.706Z,6.80
2018-06-21T02:47:22.598Z,7.47
2018-06-21T02:49:51.499Z,6.75
2018-06-21T02:52:20.387Z,6.90
2018-06-21T02:54:49.286Z,6.95
2018-06-21T02:57:18.157Z,7.17
2018-06-21T02:59:47.049Z,7.37
2018-06-21T03:02:15.918Z,7.33
2018-06-21T03:04:44.828Z,6.80
2018-06-21T03:07:13.749Z,6.42
2018-06-21T03:09:42.637Z,7.35
2018-06-21T03:12:16.892Z,7.60
2018-06-21T03:14:45.799Z,8.40
2018-06-21T03:17:14.687Z,7.90
2018-06-21T03:19:43.618Z,8.40
2018-06-21T03:22:12.622Z,7.90
2018-06-21T03:24:41.527Z,7.03
2018-06-21T03:27:10.874Z,8.20
2018-06-21T03:29:40.133Z,7.25
2018-06-21T03:32:09.641Z,7.20
2018-06-21T03:34:38.966Z,7.85
2018-06-21T03:37:07.865Z,7.28
2018-06-21T03:39:36.773Z,7.55
2018-06-21T03:42:05.659Z,7.33
2018-06-21T03:44:34.539Z,7.58
2018-06-21T03:47:03.466Z,7.87
2018-06-21T03:49:32.358Z,7.78
2018-06-21T03:52:01.230Z,7.70
2018-06-21T03:54:30.133Z,6.85
2018-06-21T03:56:59.004Z,7.55
2018-06-21T03:59:27.894Z,7.42
2018-06-21T04:01:56.786Z,7.37
2018-06-21T04:04:25.706Z,7.15
2018-06-21T04:06:54.590Z,9.63
2018-06-21T04:09:23.486Z,7.50
2018-06-21T04:11:52.357Z,7.75
2018-06-21T04:14:21.237Z,8.00
2018-06-21T04:16:50.154Z,7.30
2018-06-21T04:19:19.319Z,8.10
2018-06-21T04:21:48.211Z,7.20
2018-06-21T04:24:17.086Z,8.03
2018-06-21T04:26:45.987Z,8.05
2018-06-21T04:29:14.911Z,7.33
2018-06-21T04:31:43.846Z,7.85
2018-06-21T04:34:12.752Z,7.70
2018-06-21T04:36:42.147Z,7.92
2018-06-21T04:39:13.614Z,7.28
2018-06-21T04:42:20.361Z,8.33
2018-06-21T04:44:49.271Z,7.33
2018-06-21T04:47:18.263Z,7.83
2018-06-21T04:49:47.168Z,7.20
2018-06-21T04:52:16.061Z,7.75
2018-06-21T04:54:44.962Z,8.00
2018-06-21T04:57:13.871Z,8.38
2018-06-21T04:59:42.758Z,9.03
2018-06-21T05:02:11.755Z,9.10
2018-06-21T05:04:40.651Z,7.78
2018-06-21T05:07:09.875Z,8.50
2018-06-21T05:09:38.741Z,8.63
2018-06-21T05:12:07.630Z,8.65
2018-06-21T05:14:36.583Z,7.95
2018-06-21T05:17:05.503Z,8.20
2018-06-21T05:19:35.276Z,8.25
2018-06-21T05:22:04.214Z,9.23
2018-06-21T05:24:33.107Z,9.80
2018-06-21T05:27:02.067Z,9.00
2018-06-21T05:29:30.969Z,7.95
2018-06-21T05:31:59.877Z,8.60
2018-06-21T05:34:28.778Z,8.68
2018-06-21T05:36:57.666Z,8.15
2018-06-21T05:39:26.771Z,8.35
2018-06-21T05:41:55.692Z,7.97
2018-06-21T05:44:24.635Z,8.40
2018-06-21T05:46:53.462Z,8.60
2018-06-21T05:49:22.354Z,8.18
2018-06-21T05:51:51.290Z,8.75
2018-06-21T05:54:20.182Z,8.83
2018-06-21T05:56:49.186Z,9.00
2018-06-21T05:59:18.085Z,8.33
2018-06-21T06:01:46.995Z,8.93
2018-06-21T06:04:15.894Z,7.80
2018-06-21T06:06:46.078Z,8.03
2018-06-21T06:09:15.715Z,8.50
2018-06-21T06:11:46.818Z,9.33
2018-06-21T06:14:15.782Z,9.27
2018-06-21T06:16:44.690Z,8.40
2018-06-21T06:19:13.578Z,8.47
2018-06-21T06:21:42.522Z,7.70
2018-06-21T06:24:11.696Z,7.87
2018-06-21T06:26:40.630Z,7.93
2018-06-21T06:29:09.533Z,6.70
2018-06-21T06:31:38.317Z,7.00
2018-06-21T06:34:07.158Z,6.90
2018-06-21T06:36:36.069Z,6.60
2018-06-21T06:39:19.558Z,8.17
2018-06-21T06:41:50.611Z,7.77
2018-06-21T06:44:19.847Z,7.20
2018-06-21T06:46:48.767Z,6.53
2018-06-21T06:49:17.661Z,7.83
2018-06-21T06:51:46.571Z,7.00
2018-06-21T06:54:15.494Z,6.23
2018-06-21T06:56:44.368Z,7.13
2018-06-21T06:59:13.247Z,6.77
2018-06-21T07:01:42.182Z,6.10
2018-06-21T07:04:10.808Z,6.00
2018-06-21T07:06:39.615Z,5.93
2018-06-21T07:09:09.262Z,5.60
2018-06-21T07:11:38.171Z,5.50
2018-06-21T07:14:07.103Z,5.67
2018-06-21T07:16:36.122Z,5.13
2018-06-21T07:19:05.485Z,5.10
2018-06-21T07:21:37.679Z,5.23
2018-06-21T07:24:06.714Z,4.83
2018-06-21T07:26:35.994Z,4.43
2018-06-21T07:29:05.028Z,5.13
2018-06-21T07:31:33.934Z,2.80
2018-06-21T07:34:02.801Z,3.10
2018-06-21T07:36:31.683Z,2.27
2018-06-21T07:39:00.676Z,2.87
2018-06-21T07:41:29.451Z,2.40
2018-06-21T07:43:58.334Z,3.00
2018-06-21T07:46:27.222Z,3.03
2018-06-21T07:48:56.235Z,2.97
2018-06-21T07:51:25.828Z,2.47
2018-06-21T07:53:54.747Z,2.50
2018-06-21T07:56:23.597Z,2.60
2018-06-21T07:58:52.494Z,2.60
2018-06-21T08:01:21.438Z,2.80
2018-06-21T08:03:50.329Z,2.43
2018-06-21T08:06:19.354Z,2.53
2018-06-21T08:08:48.342Z,2.40
2018-06-21T08:11:17.331Z,2.77
2018-06-21T08:13:45.920Z,2.97
2018-06-21T08:16:14.753Z,3.00
2018-06-21T08:18:43.682Z,2.43
2018-06-21T08:21:12.614Z,2.57
2018-06-21T08:23:41.561Z,2.70
2018-06-21T08:26:10.523Z,2.63
2018-06-21T08:28:39.494Z,2.50
2018-06-21T08:31:08.396Z,2.50
2018-06-21T08:33:37.277Z,2.50
2018-06-21T08:36:06.174Z,2.10
2018-06-21T08:38:35.228Z,2.17
2018-06-21T08:41:04.120Z,2.60
2018-06-21T08:43:33.015Z,2.57
2018-06-21T08:46:01.942Z,2.60
2018-06-21T08:48:30.831Z,2.40
2018-06-21T08:50:59.707Z,2.00
2018-06-21T08:53:28.597Z,2.80
2018-06-21T08:55:57.502Z,2.70
2018-06-21T08:58:26.430Z,2.70
2018-06-21T09:00:55.267Z,2.53
2018-06-21T09:03:24.270Z,2.67
2018-06-21T09:05:53.152Z,2.50
2018-06-21T09:08:22.521Z,2.33
2018-06-21T09:10:51.399Z,2.60
2018-06-21T09:13:20.281Z,2.77
2018-06-21T09:15:49.236Z,2.50
2018-06-21T09:18:18.054Z,2.40
2018-06-21T09:20:46.939Z,2.10
2018-06-21T09:23:15.854Z,2.97
2018-06-21T09:25:44.778Z,2.03
2018-06-21T09:28:13.735Z,2.30
2018-06-21T09:30:42.674Z,1.97
2018-06-21T09:33:11.625Z,1.97
2018-06-21T09:35:40.486Z,2.30
2018-06-21T09:38:14.978Z,2.23
2018-06-21T09:40:49.198Z,2.10
2018-06-21T09:43:23.548Z,1.77
2018-06-21T09:45:57.782Z,1.83
2018-06-21T09:48:30.047Z,1.90
2018-06-21T09:50:59.854Z,2.93
2018-06-21T09:53:29.285Z,2.40
2018-06-21T09:55:59.351Z,2.30
2018-06-21T09:58:28.630Z,1.90
2018-06-21T10:01:01.599Z,3.63
2018-06-21T10:03:30.752Z,2.60
2018-06-21T10:05:59.637Z,2.10
2018-06-21T10:08:28.770Z,2.13
2018-06-21T10:10:57.878Z,2.57
2018-06-21T10:13:26.746Z,2.53
2018-06-21T10:15:55.625Z,2.40
2018-06-21T10:18:24.529Z,2.60
2018-06-21T10:20:53.414Z,3.13
2018-06-21T10:23:22.308Z,2.80
2018-06-21T10:25:51.181Z,2.80
2018-06-21T10:28:20.076Z,2.70
2018-06-21T10:30:48.950Z,2.30
2018-06-21T10:33:17.990Z,2.97
2018-06-21T10:35:46.877Z,2.07
2018-06-21T10:38:15.803Z,2.97
2018-06-21T10:40:44.711Z,2.80
2018-06-21T10:43:13.642Z,2.77
2018-06-21T10:45:42.542Z,2.23
2018-06-21T10:48:11.438Z,2.43
2018-06-21T10:50:40.333Z,2.60
2018-06-21T10:53:09.240Z,3.30
2018-06-21T10:55:38.122Z,2.90
2018-06-21T10:58:07.028Z,3.30
2018-06-21T11:00:36.010Z,2.50
2018-06-21T11:03:04.951Z,2.90
2018-06-21T11:05:33.854Z,3.07
2018-06-21T11:08:02.747Z,2.47
2018-06-21T11:10:31.614Z,2.50
2018-06-21T11:13:00.516Z,2.27
2018-06-21T11:15:29.378Z,2.10
2018-06-21T11:17:58.263Z,2.47
2018-06-21T11:20:27.140Z,2.60
2018-06-21T11:22:56.054Z,1.97
2018-06-21T11:25:24.966Z,2.33
2018-06-21T11:27:53.881Z,2.30
2018-06-21T11:30:22.744Z,1.93
2018-06-21T11:32:51.648Z,2.07
2018-06-21T11:35:20.522Z,1.90
2018-06-21T11:37:49.403Z,2.70
2018-06-21T11:40:18.333Z,2.07
2018-06-21T11:42:47.278Z,2.37
2018-06-21T11:45:16.241Z,2.60
2018-06-21T11:47:45.258Z,1.80
2018-06-21T11:50:13.871Z,1.70
2018-06-21T11:52:42.675Z,1.80
2018-06-21T11:55:11.643Z,1.77
2018-06-21T11:57:40.815Z,1.50
2018-06-21T12:00:09.734Z,1.83
2018-06-21T12:02:38.603Z,1.40
2018-06-21T12:05:07.495Z,1.40
2018-06-21T12:07:36.401Z,2.27
2018-06-21T12:10:05.417Z,1.93
2018-06-21T12:12:34.280Z,1.60
2018-06-21T12:15:03.202Z,1.47
2018-06-21T12:17:32.094Z,1.73
2018-06-21T12:20:01.078Z,1.43
2018-06-21T12:22:29.979Z,1.67
2018-06-21T12:24:58.925Z,1.90
2018-06-21T12:27:27.798Z,1.43
2018-06-21T12:29:56.786Z,1.77
2018-06-21T12:32:25.889Z,1.47
2018-06-21T12:34:54.766Z,1.83
2018-06-21T12:37:23.671Z,1.70
2018-06-21T12:39:52.564Z,1.40
2018-06-21T12:42:21.433Z,1.40
2018-06-21T12:44:50.325Z,1.87
2018-06-21T12:47:19.205Z,1.70
2018-06-21T12:49:48.111Z,1.70
2018-06-21T12:52:17.006Z,1.80
2018-06-21T12:54:45.911Z,1.60
2018-06-21T12:57:14.838Z,1.90
2018-06-21T12:59:43.746Z,2.07
2018-06-21T13:02:12.875Z,1.73
2018-06-21T13:04:41.507Z,1.73
2018-06-21T13:07:10.315Z,1.80
2018-06-21T13:09:50.394Z,1.90
2018-06-21T13:12:32.090Z,1.77
2018-06-21T13:15:01.099Z,1.40
2018-06-21T13:17:30.933Z,1.37
2018-06-21T13:20:00.980Z,1.57
2018-06-21T13:22:29.961Z,1.30
2018-06-21T13:24:59.199Z,1.37
2018-06-21T13:27:28.133Z,2.00
2018-06-21T13:29:57.042Z,1.20
2018-06-21T13:32:25.935Z,1.30
2018-06-21T13:34:54.813Z,1.80
2018-06-21T13:37:23.761Z,2.20
2018-06-21T13:39:52.661Z,2.07
2018-06-21T13:42:21.549Z,2.63
2018-06-21T13:44:50.434Z,2.40
2018-06-21T13:47:19.310Z,2.53
2018-06-21T13:49:48.230Z,2.60
2018-06-21T13:52:17.145Z,2.33
2018-06-21T13:54:46.086Z,2.60
2018-06-21T13:57:14.981Z,2.87
2018-06-21T13:59:43.919Z,2.67
2018-06-21T14:02:12.816Z,2.90
2018-06-21T14:04:41.703Z,2.90
2018-06-21T14:07:10.625Z,2.60
2018-06-21T14:09:39.534Z,3.30
2018-06-21T14:12:08.430Z,2.80
2018-06-21T14:14:37.360Z,2.47
2018-06-21T14:17:06.377Z,2.53
2018-06-21T14:19:35.274Z,2.77
2018-06-21T14:22:04.257Z,2.20
2018-06-21T14:24:33.167Z,2.50
2018-06-21T14:27:02.065Z,2.77
2018-06-21T14:29:30.970Z,2.33
2018-06-21T14:31:59.866Z,2.03
2018-06-21T14:34:28.749Z,2.13
2018-06-21T14:36:57.631Z,2.07
2018-06-21T14:39:26.530Z,2.20
2018-06-21T14:41:55.412Z,2.33
2018-06-21T14:44:24.375Z,2.13
2018-06-21T14:46:53.193Z,2.23
2018-06-21T14:49:22.074Z,2.00
2018-06-21T14:51:50.986Z,1.93
2018-06-21T14:54:19.918Z,2.27
2018-06-21T14:56:48.880Z,3.00
2018-06-21T14:59:17.791Z,2.20
2018-06-21T15:01:46.633Z,2.97
2018-06-21T15:04:15.598Z,2.47
2018-06-21T15:06:44.573Z,3.07
2018-06-21T15:09:14.087Z,2.70
2018-06-21T15:11:43.139Z,3.20
2018-06-21T15:14:12.017Z,3.50
2018-06-21T15:16:40.922Z,3.70
2018-06-21T15:19:09.814Z,3.20
2018-06-21T15:21:38.709Z,3.60
2018-06-21T15:24:07.646Z,3.60
2018-06-21T15:26:36.567Z,3.80
2018-06-21T15:29:05.517Z,3.00
2018-06-21T15:31:34.385Z,3.97
2018-06-21T15:34:03.266Z,4.35
2018-06-21T15:36:32.239Z,4.20
2018-06-21T15:39:06.006Z,4.20
2018-06-21T15:41:34.952Z,3.67
2018-06-21T15:44:03.878Z,4.77
2018-06-21T15:46:32.755Z,4.60
2018-06-21T15:49:01.626Z,4.33
2018-06-21T15:51:30.533Z,4.40
2018-06-21T15:53:59.431Z,4.33
2018-06-21T15:56:28.326Z,4.70
2018-06-21T15:58:57.247Z,4.28
2018-06-21T16:01:26.138Z,4.92
2018-06-21T16:03:55.042Z,5.10
2018-06-21T16:06:23.969Z,5.20
2018-06-21T16:08:52.850Z,4.33
2018-06-21T16:11:21.825Z,4.75
2018-06-21T16:13:50.826Z,4.43
2018-06-21T16:16:19.882Z,4.50
2018-06-21T16:18:49.789Z,4.10
2018-06-21T16:21:18.802Z,3.10
2018-06-21T16:23:47.690Z,3.20
2018-06-21T16:26:16.609Z,2.63
2018-06-21T16:28:45.527Z,2.20
2018-06-21T16:31:14.550Z,2.60
2018-06-21T16:33:43.494Z,2.50
2018-06-21T16:36:12.507Z,2.40
2018-06-21T16:38:41.638Z,2.60
2018-06-21T16:41:10.549Z,2.27
2018-06-21T16:43:39.415Z,2.00
2018-06-21T16:46:08.406Z,2.00
2018-06-21T16:48:37.372Z,2.07
2018-06-21T16:51:06.271Z,1.60
2018-06-21T16:53:35.196Z,1.53
2018-06-21T16:56:04.134Z,1.60
2018-06-21T16:58:32.997Z,1.40
2018-06-21T17:01:01.879Z,2.03
2018-06-21T17:03:30.806Z,2.00
2018-06-21T17:06:00.135Z,1.80
2018-06-21T17:08:29.089Z,1.70
2018-06-21T17:10:57.681Z,1.40
2018-06-21T17:13:26.486Z,2.70
2018-06-21T17:15:55.410Z,1.37
2018-06-21T17:18:24.298Z,1.73
2018-06-21T17:20:53.185Z,1.20
2018-06-21T17:23:22.102Z,1.27
2018-06-21T17:25:51.030Z,1.43
2018-06-21T17:28:19.909Z,1.23
2018-06-21T17:30:48.806Z,1.23
2018-06-21T17:33:17.386Z,1.30
2018-06-21T17:35:46.234Z,1.20
2018-06-21T17:38:15.374Z,1.10
2018-06-21T17:40:44.291Z,1.63
2018-06-21T17:43:13.285Z,1.40
2018-06-21T17:45:42.606Z,1.20
2018-06-21T17:48:11.706Z,1.43
2018-06-21T17:50:40.632Z,1.40
2018-06-21T17:53:09.566Z,1.47
2018-06-21T17:55:38.460Z,1.13
2018-06-21T17:58:07.383Z,1.37
2018-06-21T18:00:36.266Z,1.10
2018-06-21T18:03:05.145Z,1.50
2018-06-21T18:05:34.038Z,1.10
2018-06-21T18:08:03.034Z,1.20
2018-06-21T18:10:31.958Z,1.35
2018-06-21T18:13:00.853Z,1.35
2018-06-21T18:15:29.794Z,1.10
2018-06-21T18:17:58.416Z,1.50
2018-06-21T18:20:27.662Z,1.50
2018-06-21T18:22:56.755Z,1.12
2018-06-21T18:25:25.670Z,1.30
2018-06-21T18:27:55.564Z,1.10
2018-06-21T18:30:24.678Z,1.40
2018-06-21T18:32:53.626Z,1.40
2018-06-21T18:35:22.656Z,1.15
2018-06-21T18:37:52.827Z,1.52
2018-06-21T18:40:21.711Z,1.17
2018-06-21T18:42:50.638Z,0.90
2018-06-21T18:45:19.534Z,1.00
2018-06-21T18:47:48.506Z,0.78
2018-06-21T18:50:17.415Z,1.20
2018-06-21T18:52:46.409Z,1.20
2018-06-21T18:55:15.329Z,0.88
2018-06-21T18:57:44.322Z,1.07
2018-06-21T19:00:12.942Z,1.42
2018-06-21T19:02:41.818Z,1.35
2018-06-21T19:05:10.788Z,1.07
2018-06-21T19:07:42.418Z,0.80
2018-06-21T19:10:16.841Z,1.00
2018-06-21T19:12:45.910Z,0.93
2018-06-21T19:15:14.838Z,0.85
2018-06-21T19:17:43.822Z,1.07
2018-06-21T19:20:12.766Z,0.88
2018-06-21T19:22:41.455Z,0.90
2018-06-21T19:25:10.443Z,1.20
2018-06-21T19:27:39.515Z,1.02
2018-06-21T19:30:08.426Z,0.88
2018-06-21T19:32:37.455Z,1.10
2018-06-21T19:35:06.355Z,2.67
2018-06-21T19:37:35.283Z,1.20
2018-06-21T19:40:04.275Z,1.12
2018-06-21T19:42:33.174Z,1.37
2018-06-21T19:45:02.083Z,1.32
2018-06-21T19:47:31.008Z,1.17
2018-06-21T19:49:59.868Z,1.42
2018-06-21T19:52:28.807Z,1.32
2018-06-21T19:54:57.699Z,0.95
2018-06-21T19:57:26.733Z,1.60
2018-06-21T19:59:55.624Z,1.47
2018-06-21T20:02:28.721Z,1.20
2018-06-21T20:04:57.610Z,1.12
2018-06-21T20:07:26.592Z,1.10
2018-06-21T20:09:55.393Z,1.15
2018-06-21T20:12:24.386Z,1.17
2018-06-21T20:14:54.354Z,0.90
2018-06-21T20:17:23.254Z,1.30
2018-06-21T20:19:57.528Z,0.88
2018-06-21T20:22:26.490Z,1.05
2018-06-21T20:24:55.430Z,1.30
2018-06-21T20:27:24.406Z,1.20
2018-06-21T20:29:53.521Z,1.37
2018-06-21T20:32:22.414Z,1.30
2018-06-21T20:34:51.362Z,1.02
2018-06-21T20:37:20.259Z,0.90
2018-06-21T20:39:48.838Z,1.00
2018-06-21T20:42:17.662Z,1.12
2018-06-21T20:44:46.610Z,1.25
2018-06-21T20:47:15.570Z,1.00
2018-06-21T20:49:44.496Z,1.30
2018-06-21T20:52:18.623Z,0.95
2018-06-21T20:54:48.532Z,1.12
2018-06-21T20:57:17.469Z,1.32
2018-06-21T20:59:46.362Z,1.10
2018-06-21T21:02:15.441Z,0.98
2018-06-21T21:04:53.262Z,1.05
2018-06-21T21:07:22.137Z,1.62
2018-06-21T21:09:50.996Z,1.00
2018-06-21T21:12:19.865Z,1.32
2018-06-21T21:14:48.782Z,1.22
2018-06-21T21:17:17.801Z,0.60
2018-06-21T21:19:46.701Z,1.00
2018-06-21T21:22:15.746Z,1.07
2018-06-21T21:24:45.297Z,0.85
2018-06-21T21:27:14.386Z,1.00
2018-06-21T21:29:43.278Z,0.70
2018-06-21T21:32:12.201Z,1.27
2018-06-21T21:34:41.184Z,0.80
2018-06-21T21:37:10.079Z,0.75
2018-06-21T21:39:39.002Z,1.30
2018-06-21T21:42:07.823Z,1.17
2018-06-21T21:44:36.884Z,0.82
2018-06-21T21:47:06.125Z,0.95
2018-06-21T21:49:35.034Z,0.90
2018-06-21T21:52:03.935Z,1.40
2018-06-21T21:54:32.989Z,1.12
2018-06-21T21:57:01.912Z,1.10
2018-06-21T21:59:33.474Z,0.85
2018-06-21T22:02:02.646Z,0.95
2018-06-21T22:04:32.150Z,0.98
2018-06-21T22:07:01.355Z,1.00
2018-06-21T22:09:30.468Z,1.00
2018-06-21T22:11:59.678Z,0.90
2018-06-21T22:14:28.893Z,0.90
2018-06-21T22:16:58.035Z,0.70
2018-06-21T22:19:26.897Z,0.80
2018-06-21T22:21:57.730Z,1.55
2018-06-21T22:24:26.952Z,0.90
2018-06-21T22:26:55.947Z,0.90
2018-06-21T22:29:25.230Z,0.80
2018-06-21T22:31:54.226Z,0.70
2018-06-21T22:34:23.499Z,1.05
2018-06-21T22:36:52.477Z,0.80
2018-06-21T22:39:22.627Z,0.80
2018-06-21T22:41:51.469Z,0.60
2018-06-21T22:44:20.385Z,1.00
2018-06-21T22:46:49.226Z,0.95
2018-06-21T22:49:18.093Z,0.80
2018-06-21T22:51:46.962Z,0.82
2018-06-21T22:54:16.010Z,0.75
2018-06-21T22:56:44.939Z,0.95
2018-06-21T22:59:13.859Z,1.10
2018-06-21T23:01:42.754Z,0.80
2018-06-21T23:04:11.775Z,1.20
2018-06-21T23:06:40.847Z,0.93
2018-06-21T23:09:09.739Z,0.80
2018-06-21T23:11:38.600Z,0.78
2018-06-21T23:14:07.498Z,0.82
2018-06-21T23:16:36.359Z,0.85
2018-06-21T23:19:16.878Z,1.20
2018-06-21T23:21:45.778Z,0.65
2018-06-21T23:24:14.681Z,0.80
2018-06-21T23:26:43.569Z,0.90
2018-06-21T23:29:12.461Z,0.70
2018-06-21T23:31:41.394Z,1.05
2018-06-21T23:34:10.900Z,0.80
2018-06-21T23:36:39.868Z,0.85
2018-06-21T23:39:10.346Z,1.00
2018-06-21T23:41:39.347Z,1.00
2018-06-21T23:44:08.220Z,0.82
2018-06-21T23:46:37.154Z,0.90
2018-06-21T23:49:06.034Z,0.93
2018-06-21T23:51:35.163Z,0.78
2018-06-21T23:54:04.074Z,0.90
2018-06-21T23:56:32.922Z,1.15
2018-06-21T23:59:01.794Z,0.80
